Time;durP1;ratioP1;P1;durP2;ratioP2;P2;SDS_P1;SDS_P2;PMS_P1;PMS_P2;Temp;Humidity;BMP_temperature;BMP_pressure;BME280_temperature;BME280_humidity;BME280_pressure;Samples;Min_cycle;Max_cycle;Signal;HPM_P1;HPM_P2
2023/05/16 00:00:47;;;;;;;14.13;11.60;;;;;;;;;;5081178;28;20471;-74
2023/05/16 00:03:14;;;;;;;13.20;11.60;;;;;;;;;;5082351;28;20534;-74
2023/05/16 00:05:40;;;;;;;16.80;12.50;;;;;;;;;;5080446;28;20479;-75
2023/05/16 00:08:07;;;;;;;16.10;12.00;;;;;;;;;;5082254;28;20459;-76
2023/05/16 00:10:33;;;;;;;14.10;11.20;;;;;;;;;;5083907;28;20483;-75
2023/05/16 00:13:00;;;;;;;15.63;11.80;;;;;;;;;;5090036;28;20456;-76
2023/05/16 00:15:29;;;;;;;16.20;12.23;;;;;;;;;;5088690;28;20558;-75
2023/05/16 00:17:57;;;;;;;13.93;11.20;;;;;;;;;;5084449;28;20542;-75
2023/05/16 00:20:23;;;;;;;14.27;12.07;;;;;;;;;;5081840;28;20517;-75
2023/05/16 00:22:50;;;;;;;12.77;10.67;;;;;;;;;;5091575;28;20461;-76
2023/05/16 00:25:17;;;;;;;13.70;10.30;;;;;;;;;;5081091;28;20488;-75
2023/05/16 00:27:43;;;;;;;13.73;10.27;;;;;;;;;;5088145;28;20517;-75
2023/05/16 00:30:10;;;;;;;14.13;10.97;;;;;;;;;;5083341;28;20471;-74
2023/05/16 00:32:38;;;;;;;15.00;10.77;;;;;;;;;;5081956;28;20456;-75
2023/05/16 00:35:05;;;;;;;14.13;10.37;;;;;;;;;;5082205;28;20448;-74
2023/05/16 00:37:32;;;;;;;17.10;11.03;;;;;;;;;;5081234;28;20474;-75
2023/05/16 00:39:58;;;;;;;12.80;10.80;;;;;;;;;;5087790;28;20490;-75
2023/05/16 00:42:26;;;;;;;15.37;12.43;;;;;;;;;;5080684;28;20480;-76
2023/05/16 00:44:52;;;;;;;12.50;10.13;;;;;;;;;;5081487;28;21106;-76
2023/05/16 00:47:19;;;;;;;12.07;10.47;;;;;;;;;;5081000;28;20536;-75
2023/05/16 00:49:47;;;;;;;15.90;11.00;;;;;;;;;;5081636;28;20474;-75
2023/05/16 00:52:13;;;;;;;14.07;9.60;;;;;;;;;;5088850;28;20476;-75
2023/05/16 00:54:40;;;;;;;13.43;11.30;;;;;;;;;;5086511;28;20470;-75
2023/05/16 00:57:07;;;;;;;11.67;9.80;;;;;;;;;;5087829;28;20476;-75
2023/05/16 00:59:33;;;;;;;9.73;8.37;;;;;;;;;;5083511;28;20451;-75
2023/05/16 01:02:00;;;;;;;9.33;7.60;;;;;;;;;;5088617;28;20506;-74
2023/05/16 01:04:26;;;;;;;12.07;7.60;;;;;;;;;;5087373;28;20480;-74
2023/05/16 01:06:55;;;;;;;8.40;6.33;;;;;;;;;;5080637;28;20484;-74
2023/05/16 01:09:21;;;;;;;6.90;5.80;;;;;;;;;;5081405;28;20487;-74
2023/05/16 01:11:58;;;;;;;6.17;5.07;;;;;;;;;;5080840;28;20506;-74
2023/05/16 01:14:26;;;;;;;8.60;4.97;;;;;;;;;;5081369;28;20523;-74
2023/05/16 01:16:57;;;;;;;5.33;4.40;;;;;;;;;;5080500;28;20467;-74
2023/05/16 01:19:30;;;;;;;6.63;4.67;;;;;;;;;;5078467;28;20452;-74
2023/05/16 01:22:04;;;;;;;5.80;4.60;;;;;;;;;;5080791;28;20502;-74
2023/05/16 01:24:33;;;;;;;6.10;4.60;;;;;;;;;;5081344;28;20502;-74
2023/05/16 01:27:03;;;;;;;4.90;3.90;;;;;;;;;;5082407;28;20517;-74
2023/05/16 01:29:29;;;;;;;3.50;3.13;;;;;;;;;;5085104;28;20463;-74
2023/05/16 01:31:57;;;;;;;3.93;3.20;;;;;;;;;;5085608;28;20474;-74
2023/05/16 01:34:23;;;;;;;4.83;4.07;;;;;;;;;;5086700;28;20444;-75
2023/05/16 01:36:56;;;;;;;6.30;3.93;;;;;;;;;;5084386;28;20518;-74
2023/05/16 01:39:26;;;;;;;5.57;3.73;;;;;;;;;;5085321;28;20448;-74
2023/05/16 01:41:55;;;;;;;4.70;3.70;;;;;;;;;;5083440;28;21222;-74
2023/05/16 01:44:25;;;;;;;4.80;3.30;;;;;;;;;;5085524;28;20487;-74
2023/05/16 01:46:54;;;;;;;4.83;3.30;;;;;;;;;;5083831;28;20472;-74
2023/05/16 01:49:25;;;;;;;4.10;3.20;;;;;;;;;;5084976;28;20448;-74
2023/05/16 01:51:58;;;;;;;5.17;3.70;;;;;;;;;;5073714;28;20472;-72
2023/05/16 01:54:25;;;;;;;4.80;2.70;;;;;;;;;;5084308;28;20444;-72
2023/05/16 01:56:52;;;;;;;10.13;3.33;;;;;;;;;;5083948;28;20506;-72
2023/05/16 01:59:20;;;;;;;5.50;3.27;;;;;;;;;;5084598;28;20508;-72
2023/05/16 02:01:48;;;;;;;9.63;3.70;;;;;;;;;;5084511;28;20491;-72
2023/05/16 02:04:14;;;;;;;5.53;3.03;;;;;;;;;;5085506;28;20479;-72
2023/05/16 02:06:41;;;;;;;5.57;3.33;;;;;;;;;;5083974;28;20474;-72
2023/05/16 02:09:08;;;;;;;4.87;3.43;;;;;;;;;;5084926;28;20984;-73
2023/05/16 02:11:34;;;;;;;4.70;3.67;;;;;;;;;;5083475;28;20917;-73
2023/05/16 02:14:01;;;;;;;5.53;3.33;;;;;;;;;;5084732;28;20821;-73
2023/05/16 02:16:27;;;;;;;7.43;3.37;;;;;;;;;;5083084;28;20467;-73
2023/05/16 02:18:55;;;;;;;5.10;2.90;;;;;;;;;;5084502;28;20454;-73
2023/05/16 02:21:22;;;;;;;5.63;4.03;;;;;;;;;;5083465;28;20890;-74
2023/05/16 02:23:48;;;;;;;8.93;3.80;;;;;;;;;;5082272;28;20475;-73
2023/05/16 02:26:15;;;;;;;11.47;3.67;;;;;;;;;;5083285;28;20521;-73
2023/05/16 02:28:41;;;;;;;9.23;4.30;;;;;;;;;;5084185;28;20448;-73
2023/05/16 02:31:07;;;;;;;4.00;2.60;;;;;;;;;;5090599;28;20516;-74
2023/05/16 02:33:34;;;;;;;5.87;3.30;;;;;;;;;;5084332;28;20447;-74
2023/05/16 02:36:02;;;;;;;7.23;3.50;;;;;;;;;;5083582;28;20479;-74
2023/05/16 02:38:29;;;;;;;12.77;4.37;;;;;;;;;;5083507;28;21003;-74
2023/05/16 02:40:55;;;;;;;9.40;3.00;;;;;;;;;;5067338;28;20820;-74
2023/05/16 02:43:22;;;;;;;10.73;3.27;;;;;;;;;;5089167;28;20456;-74
2023/05/16 02:45:48;;;;;;;11.37;3.90;;;;;;;;;;5087361;28;20479;-74
2023/05/16 02:48:14;;;;;;;10.97;3.40;;;;;;;;;;5083505;28;20509;-74
2023/05/16 02:50:41;;;;;;;7.33;3.33;;;;;;;;;;5082455;28;20499;-74
2023/05/16 02:53:09;;;;;;;6.63;3.37;;;;;;;;;;5082558;28;20451;-74
2023/05/16 02:55:36;;;;;;;8.00;3.33;;;;;;;;;;5082548;28;20467;-74
2023/05/16 02:58:02;;;;;;;7.73;3.17;;;;;;;;;;5083074;28;20443;-74
2023/05/16 03:00:29;;;;;;;7.93;2.93;;;;;;;;;;5082335;28;20468;-74
2023/05/16 03:02:56;;;;;;;7.17;3.20;;;;;;;;;;5083673;28;20463;-74
2023/05/16 03:05:23;;;;;;;9.90;4.20;;;;;;;;;;5082268;28;20560;-74
2023/05/16 03:07:49;;;;;;;7.40;2.90;;;;;;;;;;5083117;28;20448;-74
2023/05/16 03:10:17;;;;;;;6.83;3.20;;;;;;;;;;5082076;28;20960;-74
2023/05/16 03:12:44;;;;;;;6.70;2.83;;;;;;;;;;5083524;28;20448;-73
2023/05/16 03:15:11;;;;;;;13.80;3.50;;;;;;;;;;5083207;28;20523;-74
2023/05/16 03:17:37;;;;;;;9.90;3.60;;;;;;;;;;5096586;28;20458;-74
2023/05/16 03:20:07;;;;;;;10.57;2.87;;;;;;;;;;5089616;28;20597;-73
2023/05/16 03:22:34;;;;;;;9.10;2.80;;;;;;;;;;5086963;28;20501;-72
2023/05/16 03:25:01;;;;;;;12.30;2.80;;;;;;;;;;5082447;28;20479;-73
2023/05/16 03:27:29;;;;;;;10.43;3.50;;;;;;;;;;5081853;28;20603;-73
2023/05/16 03:29:55;;;;;;;14.30;3.50;;;;;;;;;;5087405;28;20548;-73
2023/05/16 03:32:22;;;;;;;11.90;2.67;;;;;;;;;;5080173;28;20550;-73
2023/05/16 03:34:48;;;;;;;6.30;2.27;;;;;;;;;;5083130;28;20498;-73
2023/05/16 03:37:15;;;;;;;8.67;3.10;;;;;;;;;;5082001;28;20499;-73
2023/05/16 03:39:41;;;;;;;9.67;3.80;;;;;;;;;;5082567;28;20451;-74
2023/05/16 03:42:08;;;;;;;8.23;2.97;;;;;;;;;;5082412;28;20530;-73
2023/05/16 03:44:36;;;;;;;7.77;2.77;;;;;;;;;;5082483;28;20492;-73
2023/05/16 03:47:02;;;;;;;6.90;2.70;;;;;;;;;;5087100;28;21085;-73
2023/05/16 03:49:28;;;;;;;9.63;3.13;;;;;;;;;;5082379;28;20448;-74
2023/05/16 03:51:56;;;;;;;9.73;2.40;;;;;;;;;;5083840;28;20475;-74
2023/05/16 03:54:22;;;;;;;4.80;2.77;;;;;;;;;;5089803;28;20457;-73
2023/05/16 03:56:49;;;;;;;7.03;2.77;;;;;;;;;;5084561;28;20542;-74
2023/05/16 03:59:15;;;;;;;10.07;2.90;;;;;;;;;;5082856;28;20452;-74
2023/05/16 04:01:43;;;;;;;8.97;2.40;;;;;;;;;;5079416;28;20476;-74
2023/05/16 04:04:10;;;;;;;4.63;2.70;;;;;;;;;;5083735;28;20464;-74
2023/05/16 04:06:36;;;;;;;10.17;2.70;;;;;;;;;;5079444;28;20479;-74
2023/05/16 04:09:03;;;;;;;14.20;3.60;;;;;;;;;;5091202;28;20497;-75
2023/05/16 04:11:29;;;;;;;11.90;3.23;;;;;;;;;;5083026;28;20541;-74
2023/05/16 04:13:56;;;;;;;7.93;2.73;;;;;;;;;;5083458;28;20444;-74
2023/05/16 04:16:22;;;;;;;8.07;2.83;;;;;;;;;;5085610;28;20486;-74
2023/05/16 04:18:50;;;;;;;10.03;2.90;;;;;;;;;;5082181;28;20444;-75
2023/05/16 04:21:17;;;;;;;7.60;2.80;;;;;;;;;;5081231;28;20497;-76
2023/05/16 04:23:43;;;;;;;9.40;3.00;;;;;;;;;;5082272;28;20478;-75
2023/05/16 04:26:10;;;;;;;16.17;3.13;;;;;;;;;;5078524;28;20489;-75
2023/05/16 04:28:37;;;;;;;9.43;2.60;;;;;;;;;;5083839;28;20498;-75
2023/05/16 04:31:03;;;;;;;12.70;2.93;;;;;;;;;;5086702;28;20474;-75
2023/05/16 04:33:30;;;;;;;12.47;2.83;;;;;;;;;;5084712;28;20480;-77
2023/05/16 04:35:58;;;;;;;12.70;2.87;;;;;;;;;;5087138;28;20677;-76
2023/05/16 04:38:24;;;;;;;13.30;3.00;;;;;;;;;;5084823;28;20483;-77
2023/05/16 04:40:51;;;;;;;7.90;2.27;;;;;;;;;;5080932;28;20460;-78
2023/05/16 04:43:18;;;;;;;13.10;2.60;;;;;;;;;;5082418;28;20452;-77
2023/05/16 04:45:45;;;;;;;14.03;3.33;;;;;;;;;;5079164;28;20503;-77
2023/05/16 04:48:12;;;;;;;12.07;2.20;;;;;;;;;;5079697;28;20448;-77
2023/05/16 04:50:38;;;;;;;7.93;2.60;;;;;;;;;;5083846;28;20486;-77
2023/05/16 04:53:06;;;;;;;8.40;2.60;;;;;;;;;;5085233;28;20451;-76
2023/05/16 04:55:33;;;;;;;12.77;2.80;;;;;;;;;;5079838;28;20476;-77
2023/05/16 04:57:59;;;;;;;14.70;3.17;;;;;;;;;;5083658;28;20459;-77
2023/05/16 05:00:26;;;;;;;14.77;2.20;;;;;;;;;;5081754;28;20517;-79
2023/05/16 05:02:52;;;;;;;12.30;2.63;;;;;;;;;;5088309;28;20529;-79
2023/05/16 05:05:19;;;;;;;14.87;3.10;;;;;;;;;;5084465;28;20483;-79
2023/05/16 05:07:46;;;;;;;8.60;2.40;;;;;;;;;;5088623;28;20459;-76
2023/05/16 05:10:14;;;;;;;8.83;2.20;;;;;;;;;;5085518;28;20491;-77
2023/05/16 05:12:40;;;;;;;12.47;3.17;;;;;;;;;;5091121;28;20504;-76
2023/05/16 05:15:07;;;;;;;8.80;2.40;;;;;;;;;;5089433;28;20476;-76
2023/05/16 05:17:34;;;;;;;9.07;2.17;;;;;;;;;;5084417;28;20475;-76
2023/05/16 05:20:01;;;;;;;14.57;2.63;;;;;;;;;;5087984;28;20455;-76
2023/05/16 05:22:27;;;;;;;11.83;2.03;;;;;;;;;;5084081;28;20541;-77
2023/05/16 05:24:54;;;;;;;8.80;2.73;;;;;;;;;;5088428;28;20487;-77
2023/05/16 05:27:22;;;;;;;14.57;2.37;;;;;;;;;;5082908;28;20476;-77
2023/05/16 05:29:49;;;;;;;11.60;2.53;;;;;;;;;;5078416;28;20523;-77
2023/05/16 05:32:15;;;;;;;14.37;3.23;;;;;;;;;;5075604;28;20534;-77
2023/05/16 05:34:42;;;;;;;10.97;2.70;;;;;;;;;;5085004;28;20455;-77
2023/05/16 05:37:08;;;;;;;9.17;3.03;;;;;;;;;;5081965;28;20479;-77
2023/05/16 05:39:35;;;;;;;11.60;2.97;;;;;;;;;;5071712;28;20453;-78
2023/05/16 05:42:02;;;;;;;12.50;2.43;;;;;;;;;;5073177;28;20505;-76
2023/05/16 05:44:30;;;;;;;9.27;2.60;;;;;;;;;;5078661;28;20451;-77
2023/05/16 05:46:57;;;;;;;9.03;2.13;;;;;;;;;;5078974;28;20541;-76
2023/05/16 05:49:23;;;;;;;9.83;2.77;;;;;;;;;;5078307;28;20452;-78
2023/05/16 05:51:51;;;;;;;10.57;2.50;;;;;;;;;;5078018;28;20472;-79
2023/05/16 05:54:17;;;;;;;18.73;2.87;;;;;;;;;;5077414;28;20452;-78
2023/05/16 05:56:44;;;;;;;10.97;1.97;;;;;;;;;;5083521;28;20472;-79
2023/05/16 05:59:10;;;;;;;11.40;2.43;;;;;;;;;;5084329;28;20448;-79
2023/05/16 06:01:38;;;;;;;13.43;3.70;;;;;;;;;;5082130;28;20475;-79
2023/05/16 06:04:05;;;;;;;10.27;3.30;;;;;;;;;;5084386;28;20493;-79
2023/05/16 06:06:31;;;;;;;11.43;2.50;;;;;;;;;;5081293;28;20502;-79
2023/05/16 06:08:58;;;;;;;7.50;2.50;;;;;;;;;;5076047;28;20572;-79
2023/05/16 06:11:25;;;;;;;11.10;2.73;;;;;;;;;;5075833;28;20472;-79
2023/05/16 06:13:53;;;;;;;8.63;2.30;;;;;;;;;;5075140;28;20464;-79
2023/05/16 06:16:19;;;;;;;8.47;2.67;;;;;;;;;;5071658;28;20475;-79
2023/05/16 06:18:48;;;;;;;10.03;2.83;;;;;;;;;;5079578;28;20967;-79
2023/05/16 06:21:15;;;;;;;13.93;3.23;;;;;;;;;;5082560;28;20571;-79
2023/05/16 06:23:41;;;;;;;9.60;2.00;;;;;;;;;;5075591;28;20551;-79
2023/05/16 06:26:08;;;;;;;14.77;2.47;;;;;;;;;;5077089;28;20505;-78
2023/05/16 06:28:35;;;;;;;8.80;2.70;;;;;;;;;;5083249;28;20482;-79
2023/05/16 06:31:01;;;;;;;10.43;2.43;;;;;;;;;;5079874;28;20468;-79
2023/05/16 06:33:28;;;;;;;9.67;2.17;;;;;;;;;;5076242;28;20439;-79
2023/05/16 06:35:56;;;;;;;6.23;2.47;;;;;;;;;;5083031;28;20513;-79
2023/05/16 06:38:22;;;;;;;5.37;1.60;;;;;;;;;;5082016;28;20555;-79
2023/05/16 06:40:49;;;;;;;8.90;2.03;;;;;;;;;;5082580;28;20475;-79
2023/05/16 06:43:15;;;;;;;7.10;1.90;;;;;;;;;;5080744;28;20516;-78
2023/05/16 06:45:42;;;;;;;6.97;2.27;;;;;;;;;;5075513;28;21375;-78
2023/05/16 06:48:08;;;;;;;8.53;2.20;;;;;;;;;;5074825;28;20522;-79
2023/05/16 06:50:35;;;;;;;6.87;2.17;;;;;;;;;;5067576;28;20483;-79
2023/05/16 06:53:03;;;;;;;6.80;1.93;;;;;;;;;;5074086;28;20457;-78
2023/05/16 06:55:30;;;;;;;6.03;2.00;;;;;;;;;;5082639;28;20476;-79
2023/05/16 06:57:56;;;;;;;10.17;2.50;;;;;;;;;;5080619;28;20456;-79
2023/05/16 07:00:23;;;;;;;12.43;2.30;;;;;;;;;;5077928;28;20478;-79
2023/05/16 07:02:50;;;;;;;10.33;3.07;;;;;;;;;;5078157;28;20834;-79
2023/05/16 07:05:16;;;;;;;15.13;2.37;;;;;;;;;;5082694;28;20584;-79
2023/05/16 07:07:43;;;;;;;7.77;2.13;;;;;;;;;;5081386;28;20455;-79
2023/05/16 07:10:11;;;;;;;8.07;2.00;;;;;;;;;;5079702;28;20510;-79
2023/05/16 07:12:37;;;;;;;7.83;2.17;;;;;;;;;;5068523;28;20459;-78
2023/05/16 07:15:04;;;;;;;6.37;2.30;;;;;;;;;;5082368;28;20456;-79
2023/05/16 07:17:31;;;;;;;9.80;2.20;;;;;;;;;;5076646;28;20464;-79
2023/05/16 07:19:57;;;;;;;9.53;2.47;;;;;;;;;;5083193;28;20455;-79
2023/05/16 07:22:24;;;;;;;10.07;2.57;;;;;;;;;;5083045;28;20483;-79
2023/05/16 07:24:52;;;;;;;7.10;1.83;;;;;;;;;;5082181;28;20461;-79
2023/05/16 07:27:20;;;;;;;7.37;1.80;;;;;;;;;;5081352;28;20479;-79
2023/05/16 07:29:46;;;;;;;8.60;2.10;;;;;;;;;;5082273;28;20943;-78
2023/05/16 07:32:13;;;;;;;6.17;1.67;;;;;;;;;;5081292;28;20502;-79
2023/05/16 07:34:39;;;;;;;5.37;1.73;;;;;;;;;;5082927;28;20863;-79
2023/05/16 07:37:11;;;;;;;9.07;1.90;;;;;;;;;;5081858;28;20485;-79
2023/05/16 07:39:38;;;;;;;8.10;2.53;;;;;;;;;;5082283;28;20478;-78
2023/05/16 07:42:04;;;;;;;6.20;2.00;;;;;;;;;;5081101;28;20502;-79
2023/05/16 07:44:33;;;;;;;8.23;2.40;;;;;;;;;;5081040;28;20520;-79
2023/05/16 07:46:59;;;;;;;8.33;2.53;;;;;;;;;;5078384;28;20732;-79
2023/05/16 07:49:26;;;;;;;6.67;2.03;;;;;;;;;;5073004;28;20467;-78
2023/05/16 07:51:52;;;;;;;5.13;2.00;;;;;;;;;;5068033;28;20480;-78
2023/05/16 07:54:19;;;;;;;12.40;2.70;;;;;;;;;;5073938;28;20440;-78
2023/05/16 07:56:45;;;;;;;6.37;2.23;;;;;;;;;;5076437;28;20507;-78
2023/05/16 07:59:12;;;;;;;8.13;2.57;;;;;;;;;;5077597;28;20440;-79
2023/05/16 08:01:40;;;;;;;4.30;1.70;;;;;;;;;;5075272;28;20504;-79
2023/05/16 08:04:06;;;;;;;7.13;2.33;;;;;;;;;;5074856;28;21344;-79
2023/05/16 08:06:33;;;;;;;9.37;2.73;;;;;;;;;;5078827;28;20476;-80
2023/05/16 08:08:59;;;;;;;8.47;2.20;;;;;;;;;;5078104;28;20480;-79
2023/05/16 08:11:26;;;;;;;7.17;1.80;;;;;;;;;;5079501;28;20482;-79
2023/05/16 08:13:52;;;;;;;9.33;3.00;;;;;;;;;;5081993;28;20894;-78
2023/05/16 08:16:19;;;;;;;8.47;2.80;;;;;;;;;;5073390;28;20510;-78
2023/05/16 08:18:47;;;;;;;9.53;2.30;;;;;;;;;;5076657;28;20474;-79
2023/05/16 08:21:15;;;;;;;4.60;1.50;;;;;;;;;;5078386;28;21081;-79
2023/05/16 08:23:42;;;;;;;6.40;2.00;;;;;;;;;;5075899;28;20477;-79
2023/05/16 08:26:08;;;;;;;7.13;2.00;;;;;;;;;;5080446;28;20507;-79
2023/05/16 08:28:35;;;;;;;6.80;1.83;;;;;;;;;;5081294;28;20481;-79
2023/05/16 08:31:01;;;;;;;8.60;1.90;;;;;;;;;;5089081;28;20495;-79
2023/05/16 08:33:28;;;;;;;4.40;1.83;;;;;;;;;;5081985;28;20440;-79
2023/05/16 08:35:55;;;;;;;5.80;2.10;;;;;;;;;;5080894;28;20606;-80
2023/05/16 08:38:22;;;;;;;4.03;1.70;;;;;;;;;;5080722;28;20533;-79
2023/05/16 08:40:48;;;;;;;4.93;1.33;;;;;;;;;;5077394;28;20480;-80
2023/05/16 08:43:15;;;;;;;6.97;1.37;;;;;;;;;;5081898;28;20480;-79
2023/05/16 08:45:42;;;;;;;4.20;1.60;;;;;;;;;;5078841;28;20486;-79
2023/05/16 08:48:10;;;;;;;7.40;1.87;;;;;;;;;;5076738;28;20461;-79
2023/05/16 08:50:36;;;;;;;8.93;1.67;;;;;;;;;;5073541;28;20479;-79
2023/05/16 08:53:05;;;;;;;5.90;1.70;;;;;;;;;;5076948;28;20451;-79
2023/05/16 08:55:32;;;;;;;3.23;1.63;;;;;;;;;;5080429;28;20483;-79
2023/05/16 08:57:59;;;;;;;6.17;1.80;;;;;;;;;;5073535;28;20470;-79
2023/05/16 09:00:26;;;;;;;4.70;1.60;;;;;;;;;;5070060;28;20448;-78
2023/05/16 09:02:53;;;;;;;6.70;1.73;;;;;;;;;;5075212;28;20542;-78
2023/05/16 09:05:19;;;;;;;5.20;1.70;;;;;;;;;;5080502;28;20462;-79
2023/05/16 09:07:46;;;;;;;10.07;2.30;;;;;;;;;;5078299;28;20491;-79
2023/05/16 09:10:14;;;;;;;9.00;1.93;;;;;;;;;;5079773;28;20546;-79
2023/05/16 09:12:41;;;;;;;7.33;1.57;;;;;;;;;;5078087;28;20502;-78
2023/05/16 09:15:09;;;;;;;6.20;1.50;;;;;;;;;;5081669;28;20525;-79
2023/05/16 09:17:37;;;;;;;4.50;1.53;;;;;;;;;;5080482;28;20460;-78
2023/05/16 09:20:08;;;;;;;4.40;1.43;;;;;;;;;;5081524;28;20452;-79
2023/05/16 09:22:34;;;;;;;8.63;1.90;;;;;;;;;;5089584;28;20476;-79
2023/05/16 09:25:01;;;;;;;7.30;2.50;;;;;;;;;;5081064;28;20444;-79
2023/05/16 09:27:30;;;;;;;7.53;1.87;;;;;;;;;;5081863;28;20480;-79
2023/05/16 09:29:57;;;;;;;6.20;1.90;;;;;;;;;;5084955;28;20448;-79
2023/05/16 09:32:24;;;;;;;4.63;1.40;;;;;;;;;;5080056;28;20475;-79
2023/05/16 09:34:53;;;;;;;6.93;1.67;;;;;;;;;;5081445;28;20436;-78
2023/05/16 09:37:20;;;;;;;5.50;1.40;;;;;;;;;;5077420;28;20483;-80
2023/05/16 09:39:47;;;;;;;6.20;1.97;;;;;;;;;;5077276;28;20440;-79
2023/05/16 09:42:13;;;;;;;3.60;1.40;;;;;;;;;;5074181;28;20543;-78
2023/05/16 09:44:41;;;;;;;5.60;1.50;;;;;;;;;;5078724;28;20532;-79
2023/05/16 09:47:08;;;;;;;5.40;1.80;;;;;;;;;;5079623;28;20483;-79
2023/05/16 09:49:36;;;;;;;5.20;1.47;;;;;;;;;;5083178;28;20526;-79
2023/05/16 09:52:03;;;;;;;5.10;1.40;;;;;;;;;;5083282;28;20484;-78
2023/05/16 09:54:31;;;;;;;4.40;1.43;;;;;;;;;;5084361;28;20447;-79
2023/05/16 09:56:59;;;;;;;6.83;1.77;;;;;;;;;;5094071;28;20573;-78
2023/05/16 09:59:25;;;;;;;6.13;1.73;;;;;;;;;;5084379;28;20455;-79
2023/05/16 10:01:54;;;;;;;7.57;2.10;;;;;;;;;;5082915;28;20471;-79
2023/05/16 10:04:20;;;;;;;10.07;2.07;;;;;;;;;;5078421;28;20476;-78
2023/05/16 10:06:47;;;;;;;7.27;1.70;;;;;;;;;;5082351;28;20497;-79
2023/05/16 10:09:15;;;;;;;6.87;1.60;;;;;;;;;;5083861;28;20480;-79
2023/05/16 10:11:42;;;;;;;5.37;1.33;;;;;;;;;;5091371;28;20489;-79
2023/05/16 10:14:09;;;;;;;6.63;1.40;;;;;;;;;;5083646;28;20944;-79
2023/05/16 10:16:36;;;;;;;4.50;1.80;;;;;;;;;;5082353;28;20479;-78
2023/05/16 10:19:04;;;;;;;4.63;1.20;;;;;;;;;;5081894;28;20456;-78
2023/05/16 10:21:32;;;;;;;6.47;1.30;;;;;;;;;;5082434;28;20487;-79
2023/05/16 10:24:03;;;;;;;4.30;1.20;;;;;;;;;;5083851;28;20452;-78
2023/05/16 10:26:29;;;;;;;3.00;1.50;;;;;;;;;;5083726;28;20949;-78
2023/05/16 10:28:56;;;;;;;3.80;1.53;;;;;;;;;;5082604;28;20455;-78
2023/05/16 10:31:23;;;;;;;2.80;1.30;;;;;;;;;;5082722;28;20479;-79
2023/05/16 10:33:50;;;;;;;6.23;1.30;;;;;;;;;;5083980;28;20462;-78
2023/05/16 10:36:18;;;;;;;4.93;1.40;;;;;;;;;;5082652;28;20559;-78
2023/05/16 10:38:45;;;;;;;4.07;1.20;;;;;;;;;;5086938;28;20455;-79
2023/05/16 10:41:11;;;;;;;4.73;0.90;;;;;;;;;;5080165;28;20574;-78
2023/05/16 10:43:38;;;;;;;2.87;1.10;;;;;;;;;;5082996;28;20781;-78
2023/05/16 10:46:05;;;;;;;7.93;1.63;;;;;;;;;;5082050;28;20468;-78
2023/05/16 10:48:32;;;;;;;6.23;1.60;;;;;;;;;;5083033;28;20509;-78
2023/05/16 10:50:59;;;;;;;3.63;1.30;;;;;;;;;;5082026;28;20475;-79
2023/05/16 10:53:31;;;;;;;4.23;1.60;;;;;;;;;;5083585;28;20448;-79
2023/05/16 10:56:07;;;;;;;5.07;2.17;;;;;;;;;;5082156;28;20539;-78
2023/05/16 10:58:55;;;;;;;3.33;1.37;;;;;;;;;;5082345;28;20443;-78
2023/05/16 11:01:22;;;;;;;2.30;1.10;;;;;;;;;;5078411;28;20472;-78
2023/05/16 11:04:02;;;;;;;5.90;1.27;;;;;;;;;;5081660;28;20491;-78
2023/05/16 11:06:29;;;;;;;4.60;1.37;;;;;;;;;;5081660;28;20552;-79
2023/05/16 11:09:05;;;;;;;5.50;1.50;;;;;;;;;;5088983;28;20479;-78
2023/05/16 11:11:42;;;;;;;3.97;1.20;;;;;;;;;;5080581;28;20499;-78
2023/05/16 11:14:09;;;;;;;3.93;1.30;;;;;;;;;;5082491;28;20444;-79
2023/05/16 11:16:36;;;;;;;2.23;1.20;;;;;;;;;;5081540;28;20498;-78
2023/05/16 11:19:05;;;;;;;7.27;2.10;;;;;;;;;;5082839;28;20529;-78
2023/05/16 11:21:50;;;;;;;4.00;1.50;;;;;;;;;;5081413;28;20479;-79
2023/05/16 11:24:31;;;;;;;3.73;1.37;;;;;;;;;;5082921;28;20763;-78
2023/05/16 11:26:57;;;;;;;1.97;1.20;;;;;;;;;;5080807;28;20471;-78
2023/05/16 11:29:24;;;;;;;2.83;1.63;;;;;;;;;;5082222;28;20456;-78
2023/05/16 11:31:52;;;;;;;9.40;2.07;;;;;;;;;;5081239;28;20509;-79
2023/05/16 11:34:19;;;;;;;5.57;1.60;;;;;;;;;;5082371;28;20850;-78
2023/05/16 11:36:45;;;;;;;6.17;1.43;;;;;;;;;;5092439;28;20475;-78
2023/05/16 11:39:12;;;;;;;4.53;2.13;;;;;;;;;;5082207;28;20514;-78
2023/05/16 11:41:40;;;;;;;5.53;1.73;;;;;;;;;;5080837;28;20482;-79
2023/05/16 11:44:07;;;;;;;4.80;1.33;;;;;;;;;;5080007;28;20940;-78
2023/05/16 11:46:33;;;;;;;5.57;1.63;;;;;;;;;;5080685;28;20514;-78
2023/05/16 11:49:00;;;;;;;3.07;1.20;;;;;;;;;;5081068;28;20489;-78
2023/05/16 11:51:26;;;;;;;4.13;1.30;;;;;;;;;;5081192;28;20491;-77
2023/05/16 11:53:53;;;;;;;3.87;1.30;;;;;;;;;;5081999;28;20448;-79
2023/05/16 11:56:21;;;;;;;3.40;1.73;;;;;;;;;;5080597;28;20479;-79
2023/05/16 11:58:49;;;;;;;7.17;1.40;;;;;;;;;;5081772;28;20456;-78
2023/05/16 12:01:15;;;;;;;4.60;1.10;;;;;;;;;;5080448;28;20861;-78
2023/05/16 12:03:42;;;;;;;3.70;1.43;;;;;;;;;;5081797;28;20448;-78
2023/05/16 12:06:08;;;;;;;7.43;1.67;;;;;;;;;;5086164;28;20483;-78
2023/05/16 12:08:35;;;;;;;8.33;2.13;;;;;;;;;;5088094;28;20484;-77
2023/05/16 12:11:02;;;;;;;3.93;1.60;;;;;;;;;;5079933;28;20928;-78
2023/05/16 12:13:28;;;;;;;4.33;1.40;;;;;;;;;;5081906;28;20877;-78
2023/05/16 12:15:57;;;;;;;1.90;1.10;;;;;;;;;;5080444;28;20497;-77
2023/05/16 12:18:24;;;;;;;5.33;1.37;;;;;;;;;;5081431;28;20471;-77
2023/05/16 12:20:51;;;;;;;2.73;1.40;;;;;;;;;;5081159;28;20468;-78
2023/05/16 12:23:17;;;;;;;3.90;1.50;;;;;;;;;;5076547;28;20468;-78
2023/05/16 12:25:45;;;;;;;4.60;1.43;;;;;;;;;;5069636;28;20476;-78
2023/05/16 12:28:13;;;;;;;3.47;1.90;;;;;;;;;;5070235;28;20576;-78
2023/05/16 12:30:40;;;;;;;3.20;1.50;;;;;;;;;;5079581;28;20472;-78
2023/05/16 12:33:10;;;;;;;5.00;1.37;;;;;;;;;;5062299;28;20499;-78
2023/05/16 12:35:38;;;;;;;7.83;1.97;;;;;;;;;;5080494;28;20480;-78
2023/05/16 12:38:06;;;;;;;5.87;1.20;;;;;;;;;;5079518;28;20459;-78
2023/05/16 12:40:33;;;;;;;3.27;1.43;;;;;;;;;;5080891;28;20993;-78
2023/05/16 12:42:59;;;;;;;3.90;1.30;;;;;;;;;;5071781;28;20460;-78
2023/05/16 12:45:27;;;;;;;1.63;1.10;;;;;;;;;;5079508;28;20456;-79
2023/05/16 12:47:53;;;;;;;2.10;1.40;;;;;;;;;;5080650;28;20484;-77
2023/05/16 12:50:21;;;;;;;4.30;1.27;;;;;;;;;;5079778;28;20452;-78
2023/05/16 12:52:52;;;;;;;7.00;1.47;;;;;;;;;;5080601;28;20515;-78
2023/05/16 12:55:19;;;;;;;3.20;1.43;;;;;;;;;;5079925;28;20460;-78
2023/05/16 12:57:46;;;;;;;3.83;1.27;;;;;;;;;;5086262;28;20995;-78
2023/05/16 13:00:13;;;;;;;4.90;1.40;;;;;;;;;;5081708;28;20874;-79
2023/05/16 13:02:40;;;;;;;3.10;1.30;;;;;;;;;;5076567;28;20468;-78
2023/05/16 13:05:07;;;;;;;1.73;1.10;;;;;;;;;;5068040;28;20479;-77
2023/05/16 13:07:35;;;;;;;3.70;1.23;;;;;;;;;;5074713;28;20508;-78
2023/05/16 13:10:01;;;;;;;4.33;1.20;;;;;;;;;;5081597;28;20534;-78
2023/05/16 13:12:28;;;;;;;3.60;1.40;;;;;;;;;;5082506;28;20479;-78
2023/05/16 13:14:54;;;;;;;2.47;1.50;;;;;;;;;;5075551;28;20484;-78
2023/05/16 13:17:22;;;;;;;6.20;1.43;;;;;;;;;;5083864;28;20475;-78
2023/05/16 13:19:48;;;;;;;3.17;0.90;;;;;;;;;;5076338;28;20526;-78
2023/05/16 13:22:15;;;;;;;3.67;0.97;;;;;;;;;;5080435;28;20496;-77
2023/05/16 13:24:43;;;;;;;4.27;1.43;;;;;;;;;;5095049;28;20496;-78
2023/05/16 13:27:09;;;;;;;5.60;1.07;;;;;;;;;;5090483;28;20488;-78
2023/05/16 13:29:36;;;;;;;2.20;0.97;;;;;;;;;;5077793;28;20486;-77
2023/05/16 13:32:03;;;;;;;4.20;0.93;;;;;;;;;;5070838;28;20514;-77
2023/05/16 13:34:29;;;;;;;4.40;1.27;;;;;;;;;;5084658;28;20821;-77
2023/05/16 13:36:56;;;;;;;3.33;1.10;;;;;;;;;;5090446;28;20486;-77
2023/05/16 13:39:22;;;;;;;3.40;1.40;;;;;;;;;;5094314;28;20458;-79
2023/05/16 13:41:50;;;;;;;10.17;1.97;;;;;;;;;;5096002;28;20538;-79
2023/05/16 13:44:17;;;;;;;4.57;1.20;;;;;;;;;;5077012;28;20531;-77
2023/05/16 13:46:43;;;;;;;4.70;1.50;;;;;;;;;;5078303;28;20479;-77
2023/05/16 13:49:10;;;;;;;4.37;1.40;;;;;;;;;;5081210;28;20484;-77
2023/05/16 13:51:36;;;;;;;2.93;1.00;;;;;;;;;;5077400;28;20479;-78
2023/05/16 13:54:03;;;;;;;4.17;1.10;;;;;;;;;;5083594;28;20948;-79
2023/05/16 13:56:29;;;;;;;3.87;1.27;;;;;;;;;;5083092;28;20479;-79
2023/05/16 13:58:58;;;;;;;4.43;1.80;;;;;;;;;;5084127;28;20479;-77
2023/05/16 14:01:24;;;;;;;6.97;1.37;;;;;;;;;;5082409;28;20468;-78
2023/05/16 14:03:51;;;;;;;3.63;1.20;;;;;;;;;;5082063;28;20444;-77
2023/05/16 14:06:17;;;;;;;5.77;1.70;;;;;;;;;;5082712;28;20487;-77
2023/05/16 14:08:44;;;;;;;5.17;1.30;;;;;;;;;;5079552;28;20489;-76
2023/05/16 14:11:10;;;;;;;3.00;1.77;;;;;;;;;;5062422;28;21016;-77
2023/05/16 14:13:39;;;;;;;3.40;1.47;;;;;;;;;;5063217;28;20461;-77
2023/05/16 14:16:07;;;;;;;3.63;1.20;;;;;;;;;;5059873;28;20492;-77
2023/05/16 14:18:33;;;;;;;4.37;1.43;;;;;;;;;;5058171;28;20521;-78
2023/05/16 14:21:01;;;;;;;3.60;1.50;;;;;;;;;;5056036;28;20480;-76
2023/05/16 14:23:27;;;;;;;2.93;1.03;;;;;;;;;;5056305;28;20465;-76
2023/05/16 14:25:54;;;;;;;5.13;1.50;;;;;;;;;;5061177;28;20493;-78
2023/05/16 14:28:21;;;;;;;4.23;1.47;;;;;;;;;;5061879;28;20484;-77
2023/05/16 14:30:47;;;;;;;3.83;1.40;;;;;;;;;;5063130;28;20473;-78
2023/05/16 14:33:15;;;;;;;3.57;1.37;;;;;;;;;;5066690;28;20461;-78
2023/05/16 14:35:42;;;;;;;4.60;1.77;;;;;;;;;;5065488;28;20472;-78
2023/05/16 14:38:08;;;;;;;3.63;1.63;;;;;;;;;;5062261;28;20461;-78